sensor_id;sensor_type;location;lat;lon;timestamp;P1;durP1;ratioP1;P2;durP2;ratioP2
53108;SDS011;39007;53.090;6.074;2023-12-20T00:01:50;24.65;;;4.30;;
53108;SDS011;39007;53.090;6.074;2023-12-20T00:04:16;28.02;;;4.30;;
53108;SDS011;39007;53.090;6.074;2023-12-20T00:06:42;26.77;;;3.47;;
53108;SDS011;39007;53.090;6.074;2023-12-20T00:09:09;19.35;;;4.05;;
53108;SDS011;39007;53.090;6.074;2023-12-20T00:11:35;23.73;;;4.43;;
53108;SDS011;39007;53.090;6.074;2023-12-20T00:14:01;28.92;;;4.40;;
53108;SDS011;39007;53.090;6.074;2023-12-20T00:16:27;24.30;;;3.63;;
53108;SDS011;39007;53.090;6.074;2023-12-20T00:18:53;24.42;;;4.53;;
53108;SDS011;39007;53.090;6.074;2023-12-20T00:21:19;21.73;;;3.75;;
53108;SDS011;39007;53.090;6.074;2023-12-20T00:23:45;23.42;;;4.18;;
53108;SDS011;39007;53.090;6.074;2023-12-20T00:26:11;27.13;;;3.92;;
53108;SDS011;39007;53.090;6.074;2023-12-20T00:28:38;22.10;;;3.85;;
53108;SDS011;39007;53.090;6.074;2023-12-20T00:31:04;23.85;;;4.13;;
53108;SDS011;39007;53.090;6.074;2023-12-20T00:33:30;22.80;;;3.72;;
53108;SDS011;39007;53.090;6.074;2023-12-20T00:35:57;22.80;;;3.70;;
53108;SDS011;39007;53.090;6.074;2023-12-20T00:38:23;25.30;;;4.30;;
53108;SDS011;39007;53.090;6.074;2023-12-20T00:40:49;23.20;;;4.30;;
53108;SDS011;39007;53.090;6.074;2023-12-20T00:43:15;27.10;;;4.22;;
53108;SDS011;39007;53.090;6.074;2023-12-20T00:45:41;25.98;;;4.75;;
53108;SDS011;39007;53.090;6.074;2023-12-20T00:48:07;24.30;;;3.95;;
53108;SDS011;39007;53.090;6.074;2023-12-20T00:50:33;26.10;;;4.78;;
53108;SDS011;39007;53.090;6.074;2023-12-20T00:53:00;28.63;;;4.65;;
53108;SDS011;39007;53.090;6.074;2023-12-20T00:55:26;22.90;;;4.22;;
53108;SDS011;39007;53.090;6.074;2023-12-20T00:57:52;26.85;;;4.40;;
53108;SDS011;39007;53.090;6.074;2023-12-20T01:00:19;30.70;;;4.97;;
53108;SDS011;39007;53.090;6.074;2023-12-20T01:02:45;24.58;;;4.22;;
53108;SDS011;39007;53.090;6.074;2023-12-20T01:05:14;29.17;;;4.55;;
53108;SDS011;39007;53.090;6.074;2023-12-20T01:07:40;28.48;;;4.75;;
53108;SDS011;39007;53.090;6.074;2023-12-20T01:10:06;25.20;;;4.82;;
53108;SDS011;39007;53.090;6.074;2023-12-20T01:12:32;27.13;;;5.22;;
53108;SDS011;39007;53.090;6.074;2023-12-20T01:14:58;28.88;;;4.90;;
53108;SDS011;39007;53.090;6.074;2023-12-20T01:17:25;28.75;;;5.18;;
53108;SDS011;39007;53.090;6.074;2023-12-20T01:19:51;28.10;;;4.13;;
53108;SDS011;39007;53.090;6.074;2023-12-20T01:22:17;26.17;;;4.80;;
53108;SDS011;39007;53.090;6.074;2023-12-20T01:24:44;31.23;;;4.90;;
53108;SDS011;39007;53.090;6.074;2023-12-20T01:27:10;24.58;;;4.13;;
53108;SDS011;39007;53.090;6.074;2023-12-20T01:29:36;28.10;;;4.80;;
53108;SDS011;39007;53.090;6.074;2023-12-20T01:32:02;21.77;;;4.45;;
53108;SDS011;39007;53.090;6.074;2023-12-20T01:34:28;34.85;;;5.15;;
53108;SDS011;39007;53.090;6.074;2023-12-20T01:36:54;24.80;;;4.38;;
53108;SDS011;39007;53.090;6.074;2023-12-20T01:39:20;28.67;;;4.57;;
53108;SDS011;39007;53.090;6.074;2023-12-20T01:41:46;21.75;;;4.57;;
53108;SDS011;39007;53.090;6.074;2023-12-20T01:44:13;28.08;;;5.57;;
53108;SDS011;39007;53.090;6.074;2023-12-20T01:46:39;25.70;;;4.97;;
53108;SDS011;39007;53.090;6.074;2023-12-20T01:49:06;34.85;;;5.15;;
53108;SDS011;39007;53.090;6.074;2023-12-20T01:51:32;37.47;;;5.53;;
53108;SDS011;39007;53.090;6.074;2023-12-20T01:53:59;35.20;;;5.45;;
53108;SDS011;39007;53.090;6.074;2023-12-20T01:56:25;38.55;;;5.95;;
53108;SDS011;39007;53.090;6.074;2023-12-20T01:58:52;31.77;;;5.80;;
53108;SDS011;39007;53.090;6.074;2023-12-20T02:01:19;34.17;;;5.30;;
53108;SDS011;39007;53.090;6.074;2023-12-20T02:03:45;34.38;;;5.50;;
53108;SDS011;39007;53.090;6.074;2023-12-20T02:06:11;32.55;;;5.88;;
53108;SDS011;39007;53.090;6.074;2023-12-20T02:08:37;35.95;;;5.50;;
53108;SDS011;39007;53.090;6.074;2023-12-20T02:11:04;34.60;;;5.47;;
53108;SDS011;39007;53.090;6.074;2023-12-20T02:13:30;29.38;;;5.50;;
53108;SDS011;39007;53.090;6.074;2023-12-20T02:15:57;34.08;;;5.28;;
53108;SDS011;39007;53.090;6.074;2023-12-20T02:18:23;40.00;;;5.75;;
53108;SDS011;39007;53.090;6.074;2023-12-20T02:20:49;32.08;;;5.80;;
53108;SDS011;39007;53.090;6.074;2023-12-20T02:23:15;36.42;;;6.22;;
53108;SDS011;39007;53.090;6.074;2023-12-20T02:25:41;33.25;;;5.43;;
53108;SDS011;39007;53.090;6.074;2023-12-20T02:28:07;32.95;;;5.45;;
53108;SDS011;39007;53.090;6.074;2023-12-20T02:30:34;35.05;;;6.13;;
53108;SDS011;39007;53.090;6.074;2023-12-20T02:33:00;34.03;;;6.28;;
53108;SDS011;39007;53.090;6.074;2023-12-20T02:35:27;33.80;;;6.15;;
53108;SDS011;39007;53.090;6.074;2023-12-20T02:37:53;32.38;;;5.85;;
53108;SDS011;39007;53.090;6.074;2023-12-20T02:40:19;31.58;;;6.13;;
53108;SDS011;39007;53.090;6.074;2023-12-20T02:42:45;36.22;;;6.05;;
53108;SDS011;39007;53.090;6.074;2023-12-20T02:45:11;37.33;;;6.28;;
53108;SDS011;39007;53.090;6.074;2023-12-20T02:47:37;33.50;;;6.60;;
53108;SDS011;39007;53.090;6.074;2023-12-20T02:50:03;36.90;;;6.13;;
53108;SDS011;39007;53.090;6.074;2023-12-20T02:52:29;33.65;;;6.13;;
53108;SDS011;39007;53.090;6.074;2023-12-20T02:54:55;41.20;;;6.10;;
53108;SDS011;39007;53.090;6.074;2023-12-20T02:57:22;39.40;;;6.45;;
53108;SDS011;39007;53.090;6.074;2023-12-20T02:59:48;41.13;;;7.15;;
53108;SDS011;39007;53.090;6.074;2023-12-20T03:02:14;34.95;;;5.90;;
53108;SDS011;39007;53.090;6.074;2023-12-20T03:04:40;40.28;;;7.15;;
53108;SDS011;39007;53.090;6.074;2023-12-20T03:07:06;34.13;;;6.20;;
53108;SDS011;39007;53.090;6.074;2023-12-20T03:09:32;36.88;;;6.40;;
53108;SDS011;39007;53.090;6.074;2023-12-20T03:11:58;38.00;;;6.50;;
53108;SDS011;39007;53.090;6.074;2023-12-20T03:14:24;36.40;;;6.65;;
53108;SDS011;39007;53.090;6.074;2023-12-20T03:16:50;39.97;;;6.53;;
53108;SDS011;39007;53.090;6.074;2023-12-20T03:19:17;34.95;;;6.18;;
53108;SDS011;39007;53.090;6.074;2023-12-20T03:21:46;36.33;;;6.80;;
53108;SDS011;39007;53.090;6.074;2023-12-20T03:24:12;34.45;;;6.05;;
53108;SDS011;39007;53.090;6.074;2023-12-20T03:26:39;35.72;;;5.72;;
53108;SDS011;39007;53.090;6.074;2023-12-20T03:29:05;33.13;;;6.10;;
53108;SDS011;39007;53.090;6.074;2023-12-20T03:31:31;38.17;;;6.13;;
53108;SDS011;39007;53.090;6.074;2023-12-20T03:33:57;37.13;;;6.80;;
53108;SDS011;39007;53.090;6.074;2023-12-20T03:36:23;37.08;;;5.72;;
53108;SDS011;39007;53.090;6.074;2023-12-20T03:38:49;39.40;;;7.20;;
53108;SDS011;39007;53.090;6.074;2023-12-20T03:41:15;37.90;;;6.53;;
53108;SDS011;39007;53.090;6.074;2023-12-20T03:43:41;39.17;;;6.70;;
53108;SDS011;39007;53.090;6.074;2023-12-20T03:46:08;36.47;;;7.03;;
53108;SDS011;39007;53.090;6.074;2023-12-20T03:48:34;37.65;;;6.53;;
53108;SDS011;39007;53.090;6.074;2023-12-20T03:51:00;38.42;;;6.57;;
53108;SDS011;39007;53.090;6.074;2023-12-20T03:53:27;35.00;;;6.30;;
53108;SDS011;39007;53.090;6.074;2023-12-20T03:55:53;33.38;;;6.10;;
53108;SDS011;39007;53.090;6.074;2023-12-20T03:58:19;39.20;;;6.32;;
53108;SDS011;39007;53.090;6.074;2023-12-20T04:00:45;34.13;;;6.40;;
53108;SDS011;39007;53.090;6.074;2023-12-20T04:03:11;36.17;;;6.10;;
53108;SDS011;39007;53.090;6.074;2023-12-20T04:05:40;38.90;;;6.10;;
53108;SDS011;39007;53.090;6.074;2023-12-20T04:08:06;28.77;;;5.38;;
53108;SDS011;39007;53.090;6.074;2023-12-20T04:10:33;33.65;;;6.35;;
53108;SDS011;39007;53.090;6.074;2023-12-20T04:12:59;31.73;;;5.97;;
53108;SDS011;39007;53.090;6.074;2023-12-20T04:15:25;35.38;;;7.32;;
53108;SDS011;39007;53.090;6.074;2023-12-20T04:17:51;31.40;;;5.80;;
53108;SDS011;39007;53.090;6.074;2023-12-20T04:20:17;37.28;;;6.40;;
53108;SDS011;39007;53.090;6.074;2023-12-20T04:22:43;34.17;;;6.20;;
53108;SDS011;39007;53.090;6.074;2023-12-20T04:25:09;34.15;;;6.22;;
53108;SDS011;39007;53.090;6.074;2023-12-20T04:27:36;31.10;;;5.78;;
53108;SDS011;39007;53.090;6.074;2023-12-20T04:30:02;35.03;;;6.53;;
53108;SDS011;39007;53.090;6.074;2023-12-20T04:32:28;34.10;;;6.78;;
53108;SDS011;39007;53.090;6.074;2023-12-20T04:34:55;34.38;;;6.07;;
53108;SDS011;39007;53.090;6.074;2023-12-20T04:37:21;30.58;;;6.10;;
53108;SDS011;39007;53.090;6.074;2023-12-20T04:39:47;41.63;;;7.28;;
53108;SDS011;39007;53.090;6.074;2023-12-20T04:42:13;35.90;;;6.10;;
53108;SDS011;39007;53.090;6.074;2023-12-20T04:44:39;37.50;;;6.95;;
53108;SDS011;39007;53.090;6.074;2023-12-20T04:47:05;37.22;;;6.90;;
53108;SDS011;39007;53.090;6.074;2023-12-20T04:49:32;33.55;;;6.45;;
53108;SDS011;39007;53.090;6.074;2023-12-20T04:51:58;30.40;;;6.18;;
53108;SDS011;39007;53.090;6.074;2023-12-20T04:54:24;34.92;;;7.22;;
53108;SDS011;39007;53.090;6.074;2023-12-20T04:56:50;37.05;;;6.22;;
53108;SDS011;39007;53.090;6.074;2023-12-20T04:59:16;30.20;;;5.90;;
53108;SDS011;39007;53.090;6.074;2023-12-20T05:01:42;29.73;;;5.38;;
53108;SDS011;39007;53.090;6.074;2023-12-20T05:04:08;32.35;;;6.63;;
53108;SDS011;39007;53.090;6.074;2023-12-20T05:06:34;28.80;;;5.53;;
53108;SDS011;39007;53.090;6.074;2023-12-20T05:09:01;32.38;;;6.65;;
53108;SDS011;39007;53.090;6.074;2023-12-20T05:11:27;35.10;;;6.45;;
53108;SDS011;39007;53.090;6.074;2023-12-20T05:13:53;29.63;;;5.90;;
53108;SDS011;39007;53.090;6.074;2023-12-20T05:16:19;34.88;;;6.22;;
53108;SDS011;39007;53.090;6.074;2023-12-20T05:18:46;35.70;;;6.03;;
53108;SDS011;39007;53.090;6.074;2023-12-20T05:21:13;34.38;;;6.72;;
53108;SDS011;39007;53.090;6.074;2023-12-20T05:23:39;47.05;;;7.15;;
53108;SDS011;39007;53.090;6.074;2023-12-20T05:26:05;43.17;;;6.60;;
53108;SDS011;39007;53.090;6.074;2023-12-20T05:28:31;38.58;;;6.85;;
53108;SDS011;39007;53.090;6.074;2023-12-20T05:30:57;35.03;;;6.38;;
53108;SDS011;39007;53.090;6.074;2023-12-20T05:33:23;40.05;;;7.65;;
53108;SDS011;39007;53.090;6.074;2023-12-20T05:35:50;41.00;;;7.38;;
53108;SDS011;39007;53.090;6.074;2023-12-20T05:38:16;44.70;;;7.97;;
53108;SDS011;39007;53.090;6.074;2023-12-20T05:40:42;40.28;;;6.90;;
53108;SDS011;39007;53.090;6.074;2023-12-20T05:43:08;33.17;;;6.40;;
53108;SDS011;39007;53.090;6.074;2023-12-20T05:45:34;41.53;;;7.60;;
53108;SDS011;39007;53.090;6.074;2023-12-20T05:48:00;27.67;;;5.35;;
53108;SDS011;39007;53.090;6.074;2023-12-20T05:50:26;34.42;;;5.90;;
53108;SDS011;39007;53.090;6.074;2023-12-20T05:52:52;33.78;;;6.20;;
53108;SDS011;39007;53.090;6.074;2023-12-20T05:55:19;35.80;;;7.20;;
53108;SDS011;39007;53.090;6.074;2023-12-20T05:57:45;36.90;;;7.03;;
53108;SDS011;39007;53.090;6.074;2023-12-20T06:00:12;35.00;;;7.00;;
53108;SDS011;39007;53.090;6.074;2023-12-20T06:02:38;33.22;;;6.03;;
53108;SDS011;39007;53.090;6.074;2023-12-20T06:05:05;40.30;;;7.25;;
53108;SDS011;39007;53.090;6.074;2023-12-20T06:07:31;37.90;;;6.78;;
53108;SDS011;39007;53.090;6.074;2023-12-20T06:09:57;42.88;;;6.50;;
53108;SDS011;39007;53.090;6.074;2023-12-20T06:12:23;32.85;;;6.22;;
53108;SDS011;39007;53.090;6.074;2023-12-20T06:14:51;34.63;;;6.55;;
53108;SDS011;39007;53.090;6.074;2023-12-20T06:17:17;37.92;;;6.57;;
53108;SDS011;39007;53.090;6.074;2023-12-20T06:19:43;35.30;;;6.78;;
53108;SDS011;39007;53.090;6.074;2023-12-20T06:22:13;33.25;;;6.72;;
53108;SDS011;39007;53.090;6.074;2023-12-20T06:24:39;31.83;;;6.40;;
53108;SDS011;39007;53.090;6.074;2023-12-20T06:27:05;32.03;;;6.68;;
53108;SDS011;39007;53.090;6.074;2023-12-20T06:29:31;36.53;;;6.05;;
53108;SDS011;39007;53.090;6.074;2023-12-20T06:31:57;38.88;;;6.57;;
53108;SDS011;39007;53.090;6.074;2023-12-20T06:34:23;39.05;;;6.43;;
53108;SDS011;39007;53.090;6.074;2023-12-20T06:36:50;32.70;;;6.43;;
53108;SDS011;39007;53.090;6.074;2023-12-20T06:39:16;30.67;;;6.85;;
53108;SDS011;39007;53.090;6.074;2023-12-20T06:41:42;37.88;;;6.18;;
53108;SDS011;39007;53.090;6.074;2023-12-20T06:44:08;33.83;;;6.38;;
53108;SDS011;39007;53.090;6.074;2023-12-20T06:46:34;43.42;;;6.95;;
53108;SDS011;39007;53.090;6.074;2023-12-20T06:49:01;32.95;;;6.30;;
53108;SDS011;39007;53.090;6.074;2023-12-20T06:51:27;35.10;;;6.53;;
53108;SDS011;39007;53.090;6.074;2023-12-20T06:53:53;35.55;;;6.50;;
53108;SDS011;39007;53.090;6.074;2023-12-20T06:56:19;33.58;;;6.70;;
53108;SDS011;39007;53.090;6.074;2023-12-20T06:58:45;32.13;;;6.45;;
53108;SDS011;39007;53.090;6.074;2023-12-20T07:01:12;40.35;;;7.65;;
53108;SDS011;39007;53.090;6.074;2023-12-20T07:03:39;41.28;;;7.22;;
53108;SDS011;39007;53.090;6.074;2023-12-20T07:06:05;35.75;;;6.82;;
53108;SDS011;39007;53.090;6.074;2023-12-20T07:08:32;36.00;;;7.00;;
53108;SDS011;39007;53.090;6.074;2023-12-20T07:10:58;35.22;;;6.57;;
53108;SDS011;39007;53.090;6.074;2023-12-20T07:13:24;40.40;;;6.97;;
53108;SDS011;39007;53.090;6.074;2023-12-20T07:15:50;30.85;;;6.88;;
53108;SDS011;39007;53.090;6.074;2023-12-20T07:18:16;35.20;;;6.78;;
53108;SDS011;39007;53.090;6.074;2023-12-20T07:20:42;38.38;;;6.40;;
53108;SDS011;39007;53.090;6.074;2023-12-20T07:23:09;33.13;;;6.95;;
53108;SDS011;39007;53.090;6.074;2023-12-20T07:25:35;42.22;;;5.82;;
53108;SDS011;39007;53.090;6.074;2023-12-20T07:28:01;33.03;;;6.68;;
53108;SDS011;39007;53.090;6.074;2023-12-20T07:30:27;35.97;;;6.95;;
53108;SDS011;39007;53.090;6.074;2023-12-20T07:32:53;38.95;;;7.07;;
53108;SDS011;39007;53.090;6.074;2023-12-20T07:35:20;28.67;;;6.47;;
53108;SDS011;39007;53.090;6.074;2023-12-20T07:37:46;33.13;;;6.55;;
53108;SDS011;39007;53.090;6.074;2023-12-20T07:40:12;30.58;;;6.53;;
53108;SDS011;39007;53.090;6.074;2023-12-20T07:42:38;32.08;;;6.18;;
53108;SDS011;39007;53.090;6.074;2023-12-20T07:45:04;29.70;;;5.72;;
53108;SDS011;39007;53.090;6.074;2023-12-20T07:47:31;35.75;;;6.47;;
53108;SDS011;39007;53.090;6.074;2023-12-20T07:49:57;25.80;;;5.72;;
53108;SDS011;39007;53.090;6.074;2023-12-20T07:52:23;44.88;;;6.65;;
53108;SDS011;39007;53.090;6.074;2023-12-20T07:54:49;31.10;;;6.75;;
53108;SDS011;39007;53.090;6.074;2023-12-20T07:57:15;41.50;;;6.57;;
53108;SDS011;39007;53.090;6.074;2023-12-20T07:59:41;38.50;;;7.25;;
53108;SDS011;39007;53.090;6.074;2023-12-20T08:02:09;34.70;;;7.50;;
53108;SDS011;39007;53.090;6.074;2023-12-20T08:04:35;29.23;;;6.22;;
53108;SDS011;39007;53.090;6.074;2023-12-20T08:07:01;35.95;;;6.68;;
53108;SDS011;39007;53.090;6.074;2023-12-20T08:09:27;34.15;;;6.25;;
53108;SDS011;39007;53.090;6.074;2023-12-20T08:11:53;19.95;;;4.38;;
53108;SDS011;39007;53.090;6.074;2023-12-20T08:14:20;21.95;;;4.93;;
53108;SDS011;39007;53.090;6.074;2023-12-20T08:16:46;22.58;;;4.47;;
53108;SDS011;39007;53.090;6.074;2023-12-20T08:19:12;36.33;;;6.57;;
53108;SDS011;39007;53.090;6.074;2023-12-20T08:21:38;32.08;;;5.75;;
53108;SDS011;39007;53.090;6.074;2023-12-20T08:24:05;31.67;;;6.65;;
53108;SDS011;39007;53.090;6.074;2023-12-20T08:26:31;38.55;;;7.10;;
53108;SDS011;39007;53.090;6.074;2023-12-20T08:28:57;41.83;;;7.22;;
53108;SDS011;39007;53.090;6.074;2023-12-20T08:31:23;39.63;;;7.28;;
53108;SDS011;39007;53.090;6.074;2023-12-20T08:33:50;33.35;;;6.55;;
53108;SDS011;39007;53.090;6.074;2023-12-20T08:36:16;40.17;;;6.25;;
53108;SDS011;39007;53.090;6.074;2023-12-20T08:38:43;36.63;;;6.65;;
53108;SDS011;39007;53.090;6.074;2023-12-20T08:41:09;34.85;;;6.90;;
53108;SDS011;39007;53.090;6.074;2023-12-20T08:43:35;32.47;;;6.30;;
53108;SDS011;39007;53.090;6.074;2023-12-20T08:46:02;31.02;;;6.78;;
53108;SDS011;39007;53.090;6.074;2023-12-20T08:48:28;37.50;;;7.10;;
53108;SDS011;39007;53.090;6.074;2023-12-20T08:50:54;42.38;;;7.43;;
53108;SDS011;39007;53.090;6.074;2023-12-20T08:53:20;35.90;;;6.00;;
53108;SDS011;39007;53.090;6.074;2023-12-20T08:55:47;33.58;;;6.70;;
53108;SDS011;39007;53.090;6.074;2023-12-20T08:58:13;38.03;;;7.22;;
53108;SDS011;39007;53.090;6.074;2023-12-20T09:00:39;30.25;;;6.53;;
53108;SDS011;39007;53.090;6.074;2023-12-20T09:03:05;33.63;;;6.32;;
53108;SDS011;39007;53.090;6.074;2023-12-20T09:05:32;36.40;;;6.68;;
53108;SDS011;39007;53.090;6.074;2023-12-20T09:07:58;36.35;;;6.88;;
53108;SDS011;39007;53.090;6.074;2023-12-20T09:10:24;43.08;;;6.90;;
53108;SDS011;39007;53.090;6.074;2023-12-20T09:12:50;22.83;;;4.70;;
53108;SDS011;39007;53.090;6.074;2023-12-20T09:15:19;10.63;;;2.50;;
53108;SDS011;39007;53.090;6.074;2023-12-20T09:17:45;8.82;;;2.03;;
53108;SDS011;39007;53.090;6.074;2023-12-20T09:20:11;8.27;;;2.03;;
53108;SDS011;39007;53.090;6.074;2023-12-20T09:22:38;11.65;;;2.22;;
53108;SDS011;39007;53.090;6.074;2023-12-20T09:25:06;13.43;;;2.63;;
53108;SDS011;39007;53.090;6.074;2023-12-20T09:27:33;10.02;;;2.28;;
53108;SDS011;39007;53.090;6.074;2023-12-20T09:29:59;8.07;;;1.90;;
53108;SDS011;39007;53.090;6.074;2023-12-20T09:32:25;9.48;;;2.40;;
53108;SDS011;39007;53.090;6.074;2023-12-20T09:34:51;12.60;;;2.70;;
53108;SDS011;39007;53.090;6.074;2023-12-20T09:37:17;16.67;;;2.60;;
53108;SDS011;39007;53.090;6.074;2023-12-20T09:39:43;13.85;;;2.92;;
53108;SDS011;39007;53.090;6.074;2023-12-20T09:42:11;16.23;;;2.63;;
53108;SDS011;39007;53.090;6.074;2023-12-20T09:44:37;15.55;;;2.60;;
53108;SDS011;39007;53.090;6.074;2023-12-20T09:47:07;14.10;;;2.25;;
53108;SDS011;39007;53.090;6.074;2023-12-20T09:49:33;10.43;;;2.17;;
53108;SDS011;39007;53.090;6.074;2023-12-20T09:52:00;18.13;;;3.08;;
53108;SDS011;39007;53.090;6.074;2023-12-20T09:54:26;14.95;;;2.90;;
53108;SDS011;39007;53.090;6.074;2023-12-20T09:56:54;11.63;;;2.72;;
53108;SDS011;39007;53.090;6.074;2023-12-20T09:59:20;17.45;;;3.40;;
53108;SDS011;39007;53.090;6.074;2023-12-20T10:01:46;14.80;;;3.40;;
53108;SDS011;39007;53.090;6.074;2023-12-20T10:04:12;15.90;;;3.10;;
53108;SDS011;39007;53.090;6.074;2023-12-20T10:06:39;19.38;;;2.97;;
53108;SDS011;39007;53.090;6.074;2023-12-20T10:09:05;18.73;;;3.05;;
53108;SDS011;39007;53.090;6.074;2023-12-20T10:11:32;14.98;;;2.83;;
53108;SDS011;39007;53.090;6.074;2023-12-20T10:14:01;18.00;;;3.25;;
53108;SDS011;39007;53.090;6.074;2023-12-20T10:16:27;16.95;;;2.95;;
53108;SDS011;39007;53.090;6.074;2023-12-20T10:18:54;18.90;;;2.90;;
53108;SDS011;39007;53.090;6.074;2023-12-20T10:21:20;16.33;;;2.90;;
53108;SDS011;39007;53.090;6.074;2023-12-20T10:23:47;16.73;;;3.08;;
53108;SDS011;39007;53.090;6.074;2023-12-20T10:26:27;17.98;;;3.58;;
53108;SDS011;39007;53.090;6.074;2023-12-20T10:28:55;10.85;;;2.65;;
53108;SDS011;39007;53.090;6.074;2023-12-20T10:31:32;14.48;;;2.85;;
53108;SDS011;39007;53.090;6.074;2023-12-20T10:33:59;14.73;;;2.83;;
53108;SDS011;39007;53.090;6.074;2023-12-20T10:36:25;16.30;;;3.17;;
53108;SDS011;39007;53.090;6.074;2023-12-20T10:38:52;18.30;;;3.10;;
53108;SDS011;39007;53.090;6.074;2023-12-20T10:41:20;15.48;;;3.13;;
53108;SDS011;39007;53.090;6.074;2023-12-20T10:43:49;15.35;;;2.88;;
53108;SDS011;39007;53.090;6.074;2023-12-20T10:46:16;14.95;;;3.05;;
53108;SDS011;39007;53.090;6.074;2023-12-20T10:48:43;16.17;;;3.35;;
53108;SDS011;39007;53.090;6.074;2023-12-20T10:51:10;13.43;;;2.85;;
53108;SDS011;39007;53.090;6.074;2023-12-20T10:53:36;18.95;;;3.50;;
53108;SDS011;39007;53.090;6.074;2023-12-20T10:56:04;20.20;;;3.38;;
53108;SDS011;39007;53.090;6.074;2023-12-20T10:58:32;21.23;;;3.80;;
53108;SDS011;39007;53.090;6.074;2023-12-20T11:01:00;16.77;;;3.20;;
53108;SDS011;39007;53.090;6.074;2023-12-20T11:03:32;20.52;;;3.47;;
53108;SDS011;39007;53.090;6.074;2023-12-20T11:06:05;20.02;;;3.55;;
53108;SDS011;39007;53.090;6.074;2023-12-20T11:11:05;19.13;;;3.58;;
53108;SDS011;39007;53.090;6.074;2023-12-20T11:16:18;22.70;;;4.18;;
53108;SDS011;39007;53.090;6.074;2023-12-20T11:18:45;14.68;;;3.20;;
53108;SDS011;39007;53.090;6.074;2023-12-20T11:21:11;17.77;;;3.13;;
53108;SDS011;39007;53.090;6.074;2023-12-20T11:23:39;19.08;;;3.78;;
53108;SDS011;39007;53.090;6.074;2023-12-20T11:26:08;16.17;;;3.30;;
53108;SDS011;39007;53.090;6.074;2023-12-20T11:28:34;21.30;;;3.60;;
53108;SDS011;39007;53.090;6.074;2023-12-20T11:31:01;19.40;;;3.58;;
53108;SDS011;39007;53.090;6.074;2023-12-20T11:33:35;24.00;;;4.00;;
53108;SDS011;39007;53.090;6.074;2023-12-20T11:36:03;13.48;;;3.20;;
53108;SDS011;39007;53.090;6.074;2023-12-20T11:38:36;18.50;;;3.13;;
53108;SDS011;39007;53.090;6.074;2023-12-20T11:41:05;19.55;;;4.03;;
53108;SDS011;39007;53.090;6.074;2023-12-20T11:43:31;23.58;;;3.55;;
53108;SDS011;39007;53.090;6.074;2023-12-20T11:46:04;22.42;;;3.50;;
53108;SDS011;39007;53.090;6.074;2023-12-20T11:48:37;16.75;;;4.00;;
53108;SDS011;39007;53.090;6.074;2023-12-20T11:51:11;17.85;;;3.63;;
53108;SDS011;39007;53.090;6.074;2023-12-20T11:53:38;16.75;;;3.40;;
53108;SDS011;39007;53.090;6.074;2023-12-20T11:56:07;20.73;;;3.38;;
53108;SDS011;39007;53.090;6.074;2023-12-20T11:58:34;22.30;;;3.75;;
53108;SDS011;39007;53.090;6.074;2023-12-20T12:01:00;27.52;;;4.30;;
53108;SDS011;39007;53.090;6.074;2023-12-20T12:03:32;21.38;;;4.15;;
53108;SDS011;39007;53.090;6.074;2023-12-20T12:05:58;26.17;;;4.25;;
53108;SDS011;39007;53.090;6.074;2023-12-20T12:08:25;18.00;;;3.42;;
53108;SDS011;39007;53.090;6.074;2023-12-20T12:10:52;17.95;;;3.60;;
53108;SDS011;39007;53.090;6.074;2023-12-20T12:13:18;23.67;;;4.43;;
53108;SDS011;39007;53.090;6.074;2023-12-20T12:15:44;20.27;;;4.35;;
53108;SDS011;39007;53.090;6.074;2023-12-20T12:18:10;20.38;;;3.58;;
53108;SDS011;39007;53.090;6.074;2023-12-20T12:20:36;19.20;;;3.53;;
53108;SDS011;39007;53.090;6.074;2023-12-20T12:23:03;18.90;;;3.40;;
53108;SDS011;39007;53.090;6.074;2023-12-20T12:25:30;20.38;;;3.65;;
53108;SDS011;39007;53.090;6.074;2023-12-20T12:27:57;19.50;;;3.83;;
53108;SDS011;39007;53.090;6.074;2023-12-20T12:30:24;22.48;;;4.03;;
53108;SDS011;39007;53.090;6.074;2023-12-20T12:32:50;24.17;;;3.72;;
53108;SDS011;39007;53.090;6.074;2023-12-20T12:35:17;20.30;;;3.90;;
53108;SDS011;39007;53.090;6.074;2023-12-20T12:37:44;23.30;;;3.67;;
53108;SDS011;39007;53.090;6.074;2023-12-20T12:40:14;20.92;;;3.65;;
53108;SDS011;39007;53.090;6.074;2023-12-20T12:42:41;22.48;;;4.15;;
53108;SDS011;39007;53.090;6.074;2023-12-20T12:45:08;17.60;;;3.28;;
53108;SDS011;39007;53.090;6.074;2023-12-20T12:47:35;15.45;;;3.78;;
53108;SDS011;39007;53.090;6.074;2023-12-20T12:50:01;18.67;;;3.17;;
53108;SDS011;39007;53.090;6.074;2023-12-20T12:52:27;14.15;;;2.83;;
53108;SDS011;39007;53.090;6.074;2023-12-20T12:54:53;16.05;;;3.03;;
53108;SDS011;39007;53.090;6.074;2023-12-20T12:57:20;17.92;;;3.30;;
53108;SDS011;39007;53.090;6.074;2023-12-20T12:59:46;18.05;;;3.30;;
53108;SDS011;39007;53.090;6.074;2023-12-20T13:02:12;13.18;;;2.80;;
53108;SDS011;39007;53.090;6.074;2023-12-20T13:04:39;13.50;;;2.55;;
53108;SDS011;39007;53.090;6.074;2023-12-20T13:07:06;20.02;;;3.53;;
53108;SDS011;39007;53.090;6.074;2023-12-20T13:09:32;16.73;;;3.08;;
53108;SDS011;39007;53.090;6.074;2023-12-20T13:11:58;15.68;;;2.80;;
53108;SDS011;39007;53.090;6.074;2023-12-20T13:14:24;12.70;;;2.33;;
53108;SDS011;39007;53.090;6.074;2023-12-20T13:16:50;14.18;;;2.47;;
53108;SDS011;39007;53.090;6.074;2023-12-20T13:19:17;19.75;;;3.33;;
53108;SDS011;39007;53.090;6.074;2023-12-20T13:21:43;12.95;;;3.08;;
53108;SDS011;39007;53.090;6.074;2023-12-20T13:24:09;19.00;;;2.80;;
53108;SDS011;39007;53.090;6.074;2023-12-20T13:26:35;17.10;;;3.05;;
53108;SDS011;39007;53.090;6.074;2023-12-20T13:29:01;15.23;;;3.13;;
53108;SDS011;39007;53.090;6.074;2023-12-20T13:31:27;20.73;;;3.60;;
53108;SDS011;39007;53.090;6.074;2023-12-20T13:33:53;20.60;;;3.17;;
53108;SDS011;39007;53.090;6.074;2023-12-20T13:36:19;14.75;;;3.13;;
53108;SDS011;39007;53.090;6.074;2023-12-20T13:38:45;15.32;;;3.00;;
53108;SDS011;39007;53.090;6.074;2023-12-20T13:41:12;15.30;;;3.28;;
53108;SDS011;39007;53.090;6.074;2023-12-20T13:43:38;13.65;;;2.50;;
53108;SDS011;39007;53.090;6.074;2023-12-20T13:46:04;13.57;;;2.47;;
53108;SDS011;39007;53.090;6.074;2023-12-20T13:48:30;14.60;;;2.67;;
53108;SDS011;39007;53.090;6.074;2023-12-20T13:50:57;13.60;;;2.50;;
53108;SDS011;39007;53.090;6.074;2023-12-20T13:53:23;16.48;;;2.78;;
53108;SDS011;39007;53.090;6.074;2023-12-20T13:55:49;16.80;;;3.00;;
53108;SDS011;39007;53.090;6.074;2023-12-20T13:58:16;20.15;;;3.08;;
53108;SDS011;39007;53.090;6.074;2023-12-20T14:00:43;12.90;;;2.92;;
53108;SDS011;39007;53.090;6.074;2023-12-20T14:03:09;16.65;;;2.80;;
53108;SDS011;39007;53.090;6.074;2023-12-20T14:05:35;11.88;;;2.63;;
53108;SDS011;39007;53.090;6.074;2023-12-20T14:08:01;12.90;;;2.97;;
53108;SDS011;39007;53.090;6.074;2023-12-20T14:10:28;12.80;;;2.78;;
53108;SDS011;39007;53.090;6.074;2023-12-20T14:12:54;12.40;;;2.85;;
53108;SDS011;39007;53.090;6.074;2023-12-20T14:15:20;13.52;;;2.92;;
53108;SDS011;39007;53.090;6.074;2023-12-20T14:17:46;12.73;;;2.65;;
53108;SDS011;39007;53.090;6.074;2023-12-20T14:20:12;14.23;;;2.92;;
53108;SDS011;39007;53.090;6.074;2023-12-20T14:22:39;16.58;;;3.05;;
53108;SDS011;39007;53.090;6.074;2023-12-20T14:25:10;13.60;;;3.17;;
53108;SDS011;39007;53.090;6.074;2023-12-20T14:27:37;17.08;;;3.38;;
53108;SDS011;39007;53.090;6.074;2023-12-20T14:30:03;12.98;;;3.03;;
53108;SDS011;39007;53.090;6.074;2023-12-20T14:32:31;12.68;;;3.03;;
53108;SDS011;39007;53.090;6.074;2023-12-20T14:34:57;13.43;;;3.47;;
53108;SDS011;39007;53.090;6.074;2023-12-20T14:37:23;12.43;;;3.08;;